Flight Track Log - Related Links

Times and Time Zones

All times are in EDT time to prevent confusion due to time zone crossing. See the EJA982 flight status page for this flight to view local times or setup timezone preferences in your user account.

Time Position Orientation Groundspeed Altitude Reporting Facility
EDT Latitude Longitude Course Direction KTS MPH feet Rate Location/Type
Mon 03:20:23 PM 40.8167 -74.1167 252° West 203 234 1,600  Level New York TRACON
Mon 03:21:23 PM 40.8000 -74.1833 252° West 214 246 2,200 3,054 Climbing New York TRACON
Mon 03:23:00 PM 40.7833 -74.4068 270° West  Level FlightAware Approximate
Mon 03:24:07 PM 40.7333 -74.4544 270° West 351 404 13,000  Level New York Center
Mon 03:25:08 PM 40.7272 -74.5828 266° West 392 451 16,000 1,513 Climbing New York Center
Mon 03:26:06 PM 40.7142 -74.7272 263° West 426 490 16,000  Level New York Center
Mon 03:28:05 PM 40.6864 -75.0458 264° West 451 519 16,000  Level New York Center
Mon 03:30:00 PM 40.5751 -75.2550 241° Southwest  Level FlightAware Approximate
Mon 03:32:07 PM 40.4683 -75.6189 239° Southwest 443 510 16,000  Level New York Center
Mon 03:33:07 PM 40.4069 -75.7372 236° Southwest 445 512 16,000  Level New York Center
Mon 03:34:06 PM 40.3389 -75.8711 236° Southwest 445 512 16,000  Level New York Center
Mon 03:35:06 PM 40.2683 -76.0047 235° Southwest 451 519 16,000  Level New York Center
Mon 03:36:06 PM 40.1950 -76.1514 237° Southwest 446 513 16,000  Level New York Center
Mon 03:37:00 PM 40.2213 -76.0557 239° Southwest  Level FlightAware Approximate
Mon 03:37:07 PM 40.1333 -76.2689 236° Southwest 446 513 16,000  Level New York Center
Mon 03:38:00 PM 40.1694 -76.1688 239° Southwest  Level FlightAware Approximate
Mon 03:38:07 PM 40.0639 -76.4181 239° Southwest 446 513 16,000  Level New York Center
Mon 03:39:07 PM 40.0058 -76.5381 238° Southwest 435 501 16,000 -294 Level New York Center
Mon 03:40:50 PM 39.8833 -76.8000 239° Southwest 438 504 15,200 -380 Descending Potomac TRACON
Mon 03:41:45 PM 39.8333 -76.9000 237° Southwest 429 494 15,000 -400 Descending Potomac TRACON
Mon 03:42:50 PM 39.8333 -77.0500 270° West 344 396 14,400 -1,238 Descending Potomac TRACON
Mon 03:43:51 PM 39.8167 -77.1667 260° West 317 365 12,400 -1,380 Descending Potomac TRACON
Mon 03:45:00 PM 39.7022 -77.2057 233° Southwest  Level Estimated
Mon 03:45:57 PM 39.6833 -77.2833 233° Southwest 278 320 10,100  Level Potomac TRACON
Mon 03:46:57 PM 39.6167 -77.3333 210° Southwest 269 310 10,100 -697 Level Potomac TRACON
Mon 03:48:00 PM 39.5093 -77.3487 186° South  Level FlightAware Approximate
Mon 03:49:58 PM 39.4333 -77.3667 180° South 230 265 7,300  Level Potomac TRACON
Mon 03:52:00 PM 39.2264 -77.4066 180° South  Level Estimated
Mon 03:52:58 PM 39.2500 -77.3667 180° South 219 252 4,700  Level Potomac TRACON
Mon 03:53:58 PM 39.1833 -77.3500 169° South 217 250 4,100 -350 Descending Potomac TRACON
Mon 03:54:58 PM 39.1167 -77.3667 191° South 219 252 4,000 -33 Descending Potomac TRACON
Mon 03:55:00 PM 38.9474 -77.4599 180° South  Level Estimated
Mon 03:56:58 PM 39.0000 -77.3667 180° South 222 255 4,000  Level Potomac TRACON
Mon 03:57:52 PM 38.9500 -77.3667 180° South 219 252 4,000  Level Potomac TRACON
Mon 03:58:53 PM 38.8833 -77.3667 180° South 219 252 4,000  Level Potomac TRACON
Mon 03:59:53 PM 38.8167 -77.3667 180° South 217 250 4,000  Level Potomac TRACON
Mon 04:01:00 PM 38.9081 -77.4319 331° Northwest  Level FlightAware Approximate
Mon 04:02:53 PM 38.6500 -77.3667 331° Northwest 219 252 4,000  Level Potomac TRACON
Mon 04:05:54 PM 38.6167 -77.4500 243° Southwest 229 264 3,000 -249 Descending Potomac TRACON
Mon 04:06:54 PM 38.6833 -77.4333 11° North 234 269 3,000 -281 Level Potomac TRACON
Mon 04:08:00 PM 38.9333 -77.4500 331° Northwest  Level FlightAware Approximate
Mon 04:09:49 PM 38.8333 -77.4333 360° North 171 197 1,900  Level Potomac TRACON
Mon 04:10:49 PM 38.8833 -77.4333 360° North 131 151 1,200 -700 Descending Potomac TRACON
Mon 04:11:49 PM 38.9167 -77.4333 360° North 129 148 500 -700 Descending Potomac TRACON

Login

Don't have an account? Register now (free) for customized features, flight alerts, and more!